createdAt,value
2018-12-09T00:02:07.781Z,98468.42
2018-12-09T00:04:36.331Z,98456.26
2018-12-09T00:07:05.453Z,98447.91
2018-12-09T00:09:33.016Z,98447.66
2018-12-09T00:12:02.223Z,98430.09
2018-12-09T00:14:30.502Z,98425.23
2018-12-09T00:16:59.859Z,98423.13
2018-12-09T00:19:27.429Z,98417.98
2018-12-09T00:21:56.812Z,98404.48
2018-12-09T00:24:28.282Z,98399.06
2018-12-09T00:26:56.064Z,98400.98
2018-12-09T00:29:25.262Z,98392.37
2018-12-09T00:31:53.893Z,98382.34
2018-12-09T00:34:21.468Z,98378.33
2018-12-09T00:36:50.880Z,98369.13
2018-12-09T00:39:18.773Z,98363.47
2018-12-09T00:41:47.520Z,98362.68
2018-12-09T00:44:16.612Z,98353.24
2018-12-09T00:46:44.137Z,98356.55
2018-12-09T00:49:15.387Z,98353.30
2018-12-09T00:51:44.351Z,98345.16
2018-12-09T00:54:13.559Z,98341.91
2018-12-09T00:56:41.894Z,98337.31
2018-12-09T00:59:10.819Z,98336.01
2018-12-09T01:01:39.871Z,98331.69
2018-12-09T01:04:08.068Z,98323.31
2018-12-09T01:06:37.399Z,98312.47
2018-12-09T01:09:06.860Z,98317.44
2018-12-09T01:11:35.809Z,98311.73
2018-12-09T01:14:05.201Z,98305.28
2018-12-09T01:16:34.965Z,98298.52
2018-12-09T01:19:05.922Z,98296.98
2018-12-09T01:21:33.523Z,98292.94
2018-12-09T01:24:02.837Z,98291.58
2018-12-09T01:26:33.150Z,98286.97
2018-12-09T01:29:03.840Z,98281.32
2018-12-09T01:31:31.867Z,98276.45
2018-12-09T01:34:02.254Z,98273.79
2018-12-09T01:36:31.109Z,98267.28
2018-12-09T01:39:00.748Z,98278.73
2018-12-09T01:41:31.119Z,98258.44
2018-12-09T01:44:00.662Z,98263.11
2018-12-09T01:46:31.821Z,98262.02
2018-12-09T01:49:03.953Z,98242.53
2018-12-09T01:51:31.525Z,98242.91
2018-12-09T01:54:09.426Z,98243.23
2018-12-09T01:56:39.051Z,98234.34
2018-12-09T02:02:07.358Z,98241.28
2018-12-09T02:04:37.916Z,98225.55
2018-12-09T02:07:07.035Z,98223.14
2018-12-09T02:09:34.581Z,98216.91
2018-12-09T02:12:06.870Z,98213.64
2018-12-09T02:14:37.726Z,98213.09
2018-12-09T02:17:05.588Z,98216.30
2018-12-09T02:19:36.219Z,98217.12
2018-12-09T02:22:07.897Z,98226.95
2018-12-09T02:24:36.236Z,98213.09
2018-12-09T02:27:03.800Z,98225.31
2018-12-09T02:29:33.240Z,98222.05
2018-12-09T02:32:00.866Z,98223.64
2018-12-09T02:34:30.645Z,98224.17
2018-12-09T02:36:58.544Z,98235.03
2018-12-09T02:39:26.487Z,98234.98
2018-12-09T02:41:54.270Z,98224.18
2018-12-09T02:44:22.688Z,98225.42
2018-12-09T02:50:04.521Z,98251.34
2018-12-09T02:52:33.159Z,98239.97
2018-12-09T02:55:01.116Z,98246.01
2018-12-09T02:57:29.773Z,98222.70
2018-12-09T02:59:59.206Z,98233.70
2018-12-09T03:02:26.741Z,98250.14
2018-12-09T03:04:54.411Z,98258.95
2018-12-09T03:07:23.815Z,98246.89
2018-12-09T03:09:51.754Z,98258.70
2018-12-09T03:12:19.753Z,98270.91
2018-12-09T03:14:47.301Z,98280.14
2018-12-09T03:17:16.960Z,98277.63
2018-12-09T03:19:45.364Z,98294.91
2018-12-09T03:22:13.993Z,98301.60
2018-12-09T03:24:41.980Z,98300.72
2018-12-09T03:27:11.069Z,98309.05
2018-12-09T03:29:40.997Z,98308.98
2018-12-09T03:32:10.223Z,98308.11
2018-12-09T03:34:38.469Z,98310.25
2018-12-09T03:37:07.206Z,98316.68
2018-12-09T03:39:35.765Z,98323.05
2018-12-09T03:42:03.573Z,98329.19
2018-12-09T03:44:31.538Z,98329.38
2018-12-09T03:47:01.976Z,98324.52
2018-12-09T03:49:33.335Z,98334.60
2018-12-09T03:52:01.229Z,98340.78
2018-12-09T03:54:33.364Z,98357.17
2018-12-09T03:57:02.116Z,98356.03
2018-12-09T03:59:32.925Z,98360.34
2018-12-09T04:02:02.181Z,98361.70
2018-12-09T04:04:30.687Z,98369.52
2018-12-09T04:07:02.397Z,98368.69
2018-12-09T04:09:30.134Z,98374.36
2018-12-09T04:11:59.232Z,98375.94
2018-12-09T04:14:28.986Z,98379.36
2018-12-09T04:16:57.745Z,98380.61
2018-12-09T04:19:25.598Z,98380.79
2018-12-09T04:21:54.284Z,98389.59
2018-12-09T04:24:22.432Z,98394.16
2018-12-09T04:26:51.646Z,98395.15
2018-12-09T04:29:20.836Z,98397.01
2018-12-09T04:31:51.204Z,98412.39
2018-12-09T04:34:20.058Z,98409.08
2018-12-09T04:36:48.374Z,98402.70
2018-12-09T04:39:18.422Z,98410.36
2018-12-09T04:41:46.592Z,98410.25
2018-12-09T04:44:15.182Z,98417.30
2018-12-09T04:46:44.550Z,98431.30
2018-12-09T04:49:12.417Z,98422.31
2018-12-09T04:51:55.358Z,98420.81
2018-12-09T04:54:25.245Z,98435.54
2018-12-09T04:56:57.644Z,98434.59
2018-12-09T04:59:28.937Z,98439.65
2018-12-09T05:01:56.506Z,98442.36
2018-12-09T05:04:27.054Z,98443.44
2018-12-09T05:06:55.722Z,98446.92
2018-12-09T05:09:24.697Z,98448.23
2018-12-09T05:11:54.647Z,98446.06
2018-12-09T05:14:22.613Z,98448.48
2018-12-09T05:16:54.558Z,98456.09
2018-12-09T05:19:24.849Z,98462.48
2018-12-09T05:21:55.425Z,98470.95
2018-12-09T05:24:25.391Z,98477.05
2018-12-09T05:26:54.430Z,98475.16
2018-12-09T05:29:22.037Z,98477.58
2018-12-09T05:31:51.621Z,98487.33
2018-12-09T05:34:22.494Z,98484.42
2018-12-09T05:36:52.474Z,98484.47
2018-12-09T05:39:20.700Z,98482.09
2018-12-09T05:41:52.696Z,98490.58
2018-12-09T05:44:20.934Z,98496.11
2018-12-09T05:46:48.822Z,98496.96
2018-12-09T05:49:16.833Z,98502.95
2018-12-09T05:51:45.425Z,98507.78
2018-12-09T05:54:13.786Z,98505.58
2018-12-09T05:56:41.648Z,98505.81
2018-12-09T05:59:13.929Z,98513.92
2018-12-09T06:01:42.440Z,98509.95
2018-12-09T06:04:11.960Z,98523.77
2018-12-09T06:06:40.932Z,98525.36
2018-12-09T06:09:09.434Z,98525.86
2018-12-09T06:11:38.628Z,98529.62
2018-12-09T06:14:06.477Z,98525.03
2018-12-09T06:16:34.374Z,98542.98
2018-12-09T06:19:03.166Z,98537.82
2018-12-09T06:21:32.591Z,98537.06
2018-12-09T06:24:00.996Z,98550.88
2018-12-09T06:26:32.406Z,98556.95
2018-12-09T06:29:06.063Z,98552.81
2018-12-09T06:31:37.336Z,98563.62
2018-12-09T06:34:06.807Z,98575.88
2018-12-09T06:36:35.561Z,98574.67
2018-12-09T06:39:03.538Z,98570.36
2018-12-09T06:41:33.397Z,98569.77
2018-12-09T06:44:02.601Z,98565.32
2018-12-09T06:46:32.794Z,98569.89
2018-12-09T06:49:00.426Z,98577.41
2018-12-09T06:51:28.437Z,98577.30
2018-12-09T06:53:57.219Z,98586.61
2018-12-09T06:56:27.661Z,98585.63
2018-12-09T06:58:55.958Z,98584.33
2018-12-09T07:01:25.379Z,98585.85
2018-12-09T07:03:54.257Z,98590.50
2018-12-09T07:06:26.679Z,98603.05
2018-12-09T07:08:56.078Z,98612.90
2018-12-09T07:11:24.649Z,98613.06
2018-12-09T07:13:54.155Z,98619.67
2018-12-09T07:16:23.406Z,98616.20
2018-12-09T07:18:51.335Z,98624.78
2018-12-09T07:21:21.308Z,98626.88
2018-12-09T07:23:49.166Z,98632.22
2018-12-09T07:26:17.659Z,98622.79
2018-12-09T07:28:47.637Z,98629.64
2018-12-09T07:31:16.949Z,98632.96
2018-12-09T07:33:45.245Z,98635.45
2018-12-09T07:36:13.524Z,98636.65
2018-12-09T07:38:42.666Z,98636.73
2018-12-09T07:41:12.385Z,98646.30
2018-12-09T07:43:43.356Z,98647.04
2018-12-09T07:46:16.447Z,98643.55
2018-12-09T07:48:44.000Z,98640.61
2018-12-09T07:51:12.732Z,98638.88
2018-12-09T07:53:40.249Z,98650.87
2018-12-09T07:56:11.198Z,98651.80
2018-12-09T07:58:39.983Z,98653.16
2018-12-09T08:01:08.016Z,98667.37
2018-12-09T08:03:38.255Z,98670.90
2018-12-09T08:06:06.963Z,98664.45
2018-12-09T08:08:36.837Z,98676.85
2018-12-09T08:11:05.590Z,98673.61
2018-12-09T08:13:36.166Z,98680.75
2018-12-09T08:16:03.957Z,98687.98
2018-12-09T08:18:36.884Z,98688.43
2018-12-09T08:21:09.171Z,98694.09
2018-12-09T08:23:38.635Z,98695.74
2018-12-09T08:26:09.285Z,98699.89
2018-12-09T08:28:39.016Z,98688.59
2018-12-09T08:31:07.458Z,98702.19
2018-12-09T08:33:35.217Z,98706.95
2018-12-09T08:36:03.088Z,98714.91
2018-12-09T08:38:35.795Z,98707.44
2018-12-09T08:41:07.409Z,98725.43
2018-12-09T08:43:36.494Z,98718.12
2018-12-09T08:46:07.757Z,98707.97
2018-12-09T08:48:36.792Z,98719.64
2018-12-09T08:51:07.657Z,98717.83
2018-12-09T08:53:37.784Z,98718.56
2018-12-09T08:56:06.945Z,98729.00
2018-12-09T08:58:36.801Z,98726.00
2018-12-09T09:01:07.690Z,98726.28
2018-12-09T09:03:36.679Z,98729.82
2018-12-09T09:06:04.270Z,98736.52
2018-12-09T09:08:32.571Z,98745.19
2018-12-09T09:11:02.289Z,98747.63
2018-12-09T09:13:31.209Z,98745.09
2018-12-09T09:15:59.621Z,98752.27
2018-12-09T09:18:27.490Z,98753.50
2018-12-09T09:20:56.201Z,98759.38
2018-12-09T09:23:23.779Z,98760.82
2018-12-09T09:25:51.345Z,98758.22
2018-12-09T09:28:19.157Z,98764.84
2018-12-09T09:30:46.724Z,98767.70
2018-12-09T09:33:16.244Z,98756.33
2018-12-09T09:35:45.874Z,98771.16
2018-12-09T09:38:15.092Z,98775.44
2018-12-09T09:40:43.536Z,98775.86
2018-12-09T09:43:13.659Z,98774.72
2018-12-09T09:45:42.816Z,98776.54
2018-12-09T09:48:11.046Z,98780.85
2018-12-09T09:50:39.585Z,98780.69
2018-12-09T09:53:07.681Z,98788.13
2018-12-09T09:55:36.743Z,98784.48
2018-12-09T09:58:05.546Z,98781.30
2018-12-09T10:00:34.770Z,98794.09
2018-12-09T10:03:03.862Z,98789.75
2018-12-09T10:05:31.401Z,98790.42
2018-12-09T10:08:00.487Z,98789.47
2018-12-09T10:10:30.190Z,98788.28
2018-12-09T10:12:57.732Z,98791.92
2018-12-09T10:15:27.605Z,98796.70
2018-12-09T10:17:56.723Z,98790.27
2018-12-09T10:20:24.611Z,98799.50
2018-12-09T10:22:52.184Z,98801.16
2018-12-09T10:25:19.725Z,98803.13
2018-12-09T10:27:47.278Z,98799.36
2018-12-09T10:30:15.751Z,98800.54
2018-12-09T10:32:44.820Z,98798.54
2018-12-09T10:35:14.691Z,98805.33
2018-12-09T10:40:16.681Z,98813.34
2018-12-09T10:42:46.899Z,98815.70
2018-12-09T10:45:14.450Z,98817.81
2018-12-09T10:47:41.991Z,98815.08
2018-12-09T10:50:09.504Z,98815.26
2018-12-09T10:52:37.036Z,98809.44
2018-12-09T10:55:04.627Z,98812.16
2018-12-09T10:57:32.164Z,98811.63
2018-12-09T10:59:59.675Z,98816.41
2018-12-09T11:02:27.287Z,98831.33
2018-12-09T11:04:54.872Z,98819.91
2018-12-09T11:07:22.382Z,98828.00
2018-12-09T11:09:49.924Z,98822.45
2018-12-09T11:12:17.434Z,98824.03
2018-12-09T11:14:44.974Z,98826.64
2018-12-09T11:17:12.482Z,98828.47
2018-12-09T11:19:40.018Z,98828.25
2018-12-09T11:22:07.523Z,98825.81
2018-12-09T11:24:35.058Z,98834.79
2018-12-09T11:27:02.569Z,98831.47
2018-12-09T11:29:30.104Z,98838.15
2018-12-09T11:31:57.626Z,98839.22
2018-12-09T11:34:25.157Z,98839.54
2018-12-09T11:36:52.683Z,98855.89
2018-12-09T11:39:20.231Z,98890.66
2018-12-09T11:41:47.745Z,98850.54
2018-12-09T11:44:15.283Z,98878.28
2018-12-09T11:46:42.785Z,98877.27
2018-12-09T11:49:10.392Z,98876.65
2018-12-09T11:51:37.914Z,98874.23
2018-12-09T11:54:05.456Z,98878.69
2018-12-09T11:56:32.969Z,98883.13
2018-12-09T11:59:00.504Z,98880.28
2018-12-09T12:01:28.014Z,98878.66
2018-12-09T12:03:55.551Z,98880.98
2018-12-09T12:06:23.061Z,98865.17
2018-12-09T12:08:50.606Z,98876.45
2018-12-09T12:11:18.124Z,98877.75
2018-12-09T12:13:45.640Z,98879.31
2018-12-09T12:16:13.184Z,98878.19
2018-12-09T12:18:40.702Z,98876.84
2018-12-09T12:21:08.246Z,98881.20
2018-12-09T12:23:35.753Z,98883.08
2018-12-09T12:26:03.469Z,98891.16
2018-12-09T12:28:30.982Z,98899.43
2018-12-09T12:30:58.519Z,98893.54
2018-12-09T12:33:26.027Z,98889.86
2018-12-09T12:35:54.038Z,98900.31
2018-12-09T12:38:21.547Z,98878.52
2018-12-09T12:40:49.102Z,98899.28
2018-12-09T12:52:02.631Z,98916.85
2018-12-09T12:54:30.145Z,98918.69
2018-12-09T12:56:57.701Z,98922.94
2018-12-09T12:59:25.232Z,98933.31
2018-12-09T13:01:52.769Z,98928.35
2018-12-09T13:04:20.286Z,98930.93
2018-12-09T13:06:47.824Z,98927.70
2018-12-09T13:09:15.349Z,98935.98
2018-12-09T13:11:42.908Z,98942.53
2018-12-09T13:14:10.783Z,98932.27
2018-12-09T13:16:38.323Z,98936.71
2018-12-09T13:19:05.867Z,98936.34
2018-12-09T13:21:33.535Z,98945.59
2018-12-09T13:24:01.811Z,98935.88
2018-12-09T13:26:29.791Z,98956.08
2018-12-09T13:28:57.311Z,98955.87
2018-12-09T13:31:24.846Z,98956.61
2018-12-09T13:33:52.533Z,98959.56
2018-12-09T13:36:20.073Z,98964.22
2018-12-09T13:38:48.430Z,98969.88
2018-12-09T13:41:15.967Z,98978.02
2018-12-09T13:43:43.482Z,98969.88
2018-12-09T13:46:11.013Z,98981.19
2018-12-09T13:48:38.589Z,98987.68
2018-12-09T13:51:06.098Z,98999.51
2018-12-09T13:53:33.637Z,98989.93
2018-12-09T13:56:01.146Z,99004.41
2018-12-09T13:58:28.676Z,99005.98
2018-12-09T14:00:56.186Z,99005.84
2018-12-09T14:03:23.718Z,99004.09
2018-12-09T14:05:51.234Z,99006.63
2018-12-09T14:08:18.769Z,99009.64
2018-12-09T14:10:46.355Z,99001.36
2018-12-09T14:13:13.908Z,99000.39
2018-12-09T14:15:41.416Z,99000.45
2018-12-09T14:18:08.955Z,99004.02
2018-12-09T14:20:36.462Z,99013.80
2018-12-09T14:23:04.237Z,99022.23
2018-12-09T14:25:31.746Z,99025.03
2018-12-09T14:27:59.281Z,99021.64
2018-12-09T14:30:26.794Z,99044.55
2018-12-09T14:32:54.332Z,99042.57
2018-12-09T14:35:21.842Z,99049.06
2018-12-09T14:37:49.389Z,99060.44
2018-12-09T14:40:16.902Z,99071.87
2018-12-09T14:42:44.435Z,99072.20
2018-12-09T14:45:11.945Z,99076.17
2018-12-09T14:47:39.485Z,99073.17
2018-12-09T14:50:08.528Z,99082.27
2018-12-09T14:52:36.385Z,99076.38
2018-12-09T14:55:04.245Z,99080.02
2018-12-09T14:57:31.786Z,99094.39
2018-12-09T14:59:59.289Z,99099.19
2018-12-09T15:02:26.821Z,99106.85
2018-12-09T15:04:54.336Z,99100.74
2018-12-09T15:07:21.881Z,99112.42
2018-12-09T15:09:49.569Z,99118.08
2018-12-09T15:12:17.283Z,99135.94
2018-12-09T15:14:44.808Z,99136.00
2018-12-09T15:17:12.348Z,99133.38
2018-12-09T15:19:39.864Z,99139.63
2018-12-09T15:22:07.381Z,99150.72
2018-12-09T15:24:41.406Z,99152.41
2018-12-09T15:27:04.497Z,99155.89
2018-12-09T15:29:32.037Z,99146.00
2018-12-09T15:31:59.562Z,99162.08
2018-12-09T15:34:27.129Z,99168.56
2018-12-09T15:36:54.639Z,99163.41
2018-12-09T15:39:22.172Z,99181.63
2018-12-09T15:41:49.685Z,99182.06
2018-12-09T15:44:17.231Z,99180.41
2018-12-09T15:46:44.745Z,99179.68
2018-12-09T15:49:12.284Z,99187.58
2018-12-09T15:51:39.809Z,99184.77
2018-12-09T15:54:07.429Z,99194.49
2018-12-09T15:56:34.951Z,99202.23
2018-12-09T15:59:02.489Z,99213.90
2018-12-09T16:01:30.007Z,99219.00
2018-12-09T16:03:57.538Z,99222.30
2018-12-09T16:06:25.048Z,99229.58
2018-12-09T16:08:52.585Z,99227.16
2018-12-09T16:11:20.088Z,99228.95
2018-12-09T16:13:47.632Z,99223.86
2018-12-09T16:16:15.141Z,99228.09
2018-12-09T16:18:42.757Z,99247.00
2018-12-09T16:21:10.272Z,99240.75
2018-12-09T16:23:37.808Z,99242.34
2018-12-09T16:26:05.324Z,99255.67
2018-12-09T16:28:32.862Z,99252.13
2018-12-09T16:31:00.378Z,99252.26
2018-12-09T16:33:27.918Z,99256.03
2018-12-09T16:35:56.154Z,99268.95
2018-12-09T16:38:23.694Z,99259.84
2018-12-09T16:40:51.258Z,99281.00
2018-12-09T16:43:18.801Z,99268.63
2018-12-09T16:45:46.318Z,99283.09
2018-12-09T16:48:13.861Z,99272.34
2018-12-09T16:50:41.376Z,99277.64
2018-12-09T16:53:08.918Z,99287.69
2018-12-09T16:55:36.437Z,99279.65
2018-12-09T16:58:03.985Z,99301.84
2018-12-09T17:00:31.507Z,99295.61
2018-12-09T17:02:59.024Z,99307.79
2018-12-09T17:05:26.554Z,99320.97
2018-12-09T17:07:54.079Z,99336.19
2018-12-09T17:10:21.614Z,99329.39
2018-12-09T17:12:49.132Z,99335.89
2018-12-09T17:15:16.731Z,99339.20
2018-12-09T17:17:44.249Z,99336.57
2018-12-09T17:20:11.791Z,99335.66
2018-12-09T17:22:39.316Z,99339.11
2018-12-09T17:25:06.952Z,99340.77
2018-12-09T17:27:34.464Z,99365.89
2018-12-09T17:30:02.051Z,99359.46
2018-12-09T17:32:29.600Z,99371.14
2018-12-09T17:34:57.133Z,99361.19
2018-12-09T17:37:24.715Z,99375.69
2018-12-09T17:39:52.246Z,99391.20
2018-12-09T17:42:19.758Z,99386.09
2018-12-09T17:44:47.307Z,99386.83
2018-12-09T17:47:14.815Z,99381.70
2018-12-09T17:49:42.360Z,99400.37
2018-12-09T17:52:09.878Z,99408.09
2018-12-09T17:54:37.410Z,99397.44
2018-12-09T17:57:04.919Z,99411.92
2018-12-09T17:59:32.639Z,99400.45
2018-12-09T18:02:01.100Z,99425.91
2018-12-09T18:04:28.628Z,99433.10
2018-12-09T18:06:56.169Z,99452.37
2018-12-09T18:09:23.677Z,99444.80
2018-12-09T18:11:51.210Z,99448.95
2018-12-09T18:14:18.719Z,99458.86
2018-12-09T18:16:46.252Z,99460.02
2018-12-09T18:19:13.764Z,99473.27
2018-12-09T18:21:41.297Z,99483.95
2018-12-09T18:30:19.493Z,99486.60
2018-12-09T18:32:46.993Z,99510.48
2018-12-09T18:35:14.466Z,99513.37
2018-12-09T18:37:41.965Z,99513.59
2018-12-09T18:40:09.482Z,99517.89
2018-12-09T18:42:37.153Z,99519.34
2018-12-09T18:45:04.949Z,99525.69
2018-12-09T18:47:32.452Z,99537.16
2018-12-09T18:49:59.933Z,99541.30
2018-12-09T18:52:30.984Z,99528.80
2018-12-09T18:54:58.568Z,99541.62
2018-12-09T18:57:26.074Z,99557.37
2018-12-09T18:59:53.553Z,99512.66
2018-12-09T19:02:21.043Z,99553.39
2018-12-09T19:04:48.583Z,99563.21
2018-12-09T19:07:16.139Z,99580.91
2018-12-09T19:09:43.615Z,99580.48
2018-12-09T19:12:11.177Z,99595.09
2018-12-09T19:14:38.652Z,99586.95
2018-12-09T19:17:06.153Z,99609.98
2018-12-09T19:19:33.632Z,99612.81
2018-12-09T19:22:01.149Z,99623.35
2018-12-09T19:24:28.633Z,99635.16
2018-12-09T19:26:56.139Z,99634.19
2018-12-09T19:29:23.622Z,99644.19
2018-12-09T19:31:51.410Z,99644.49
2018-12-09T19:34:19.091Z,99645.27
2018-12-09T19:36:47.685Z,99658.91
2018-12-09T19:39:15.213Z,99678.27
2018-12-09T19:41:42.692Z,99682.42
2018-12-09T19:44:10.322Z,99688.18
2018-12-09T19:46:37.801Z,99691.47
2018-12-09T19:49:05.304Z,99698.73
2018-12-09T19:51:32.792Z,99694.05
2018-12-09T19:54:00.297Z,99690.38
2018-12-09T19:56:27.778Z,99706.84
2018-12-09T19:58:55.306Z,99710.73
2018-12-09T20:01:22.840Z,99718.50
2018-12-09T20:03:50.347Z,99735.05
2018-12-09T20:06:17.822Z,99723.05
2018-12-09T20:08:45.316Z,99746.11
2018-12-09T20:11:12.796Z,99734.94
2018-12-09T20:13:40.297Z,99759.61
2018-12-09T20:16:07.773Z,99752.13
2018-12-09T20:18:35.273Z,99774.05
2018-12-09T20:21:02.749Z,99768.51
2018-12-09T20:23:30.257Z,99774.58
2018-12-09T20:25:57.735Z,99792.44
2018-12-09T20:28:25.237Z,99798.23
2018-12-09T20:30:52.719Z,99809.78
2018-12-09T20:33:20.240Z,99810.02
2018-12-09T20:35:47.717Z,99810.02
2018-12-09T20:38:15.191Z,99832.20
2018-12-09T20:40:42.694Z,99833.80
2018-12-09T20:43:10.183Z,99828.30
2018-12-09T20:45:37.684Z,99841.56
2018-12-09T20:48:13.180Z,99853.21
2018-12-09T20:50:34.733Z,99851.97
2018-12-09T20:53:02.210Z,99846.79
2018-12-09T20:55:31.032Z,99850.27
2018-12-09T20:57:58.715Z,99841.70
2018-12-09T21:00:26.217Z,99845.12
2018-12-09T21:02:53.694Z,99856.79
2018-12-09T21:05:21.252Z,99869.27
2018-12-09T21:07:48.723Z,99873.85
2018-12-09T21:10:16.221Z,99871.97
2018-12-09T21:12:43.696Z,99888.27
2018-12-09T21:15:11.204Z,99882.84
2018-12-09T21:17:38.685Z,99882.64
2018-12-09T21:20:06.239Z,99894.26
2018-12-09T21:22:33.708Z,99899.84
2018-12-09T21:25:01.209Z,99910.03
2018-12-09T21:27:28.685Z,99945.54
2018-12-09T21:29:56.189Z,99909.52
2018-12-09T21:32:23.663Z,99908.06
2018-12-09T21:34:51.212Z,99910.80
2018-12-09T21:37:18.685Z,99914.89
2018-12-09T21:39:46.163Z,99922.84
2018-12-09T21:42:13.720Z,99931.41
2018-12-09T21:44:41.201Z,99932.17
2018-12-09T21:47:08.701Z,99944.30
2018-12-09T21:49:36.179Z,99947.91
2018-12-09T21:52:03.733Z,99959.55
2018-12-09T21:54:31.204Z,99961.98
2018-12-09T21:56:58.704Z,99971.78
2018-12-09T21:59:26.185Z,99971.73
2018-12-09T22:01:53.683Z,99984.56
2018-12-09T22:04:21.152Z,99991.47
2018-12-09T22:06:48.648Z,99994.32
2018-12-09T22:09:16.127Z,100007.06
2018-12-09T22:11:43.630Z,99997.55
2018-12-09T22:14:11.116Z,100013.34
2018-12-09T22:16:38.634Z,100024.21
2018-12-09T22:19:06.173Z,100021.56
2018-12-09T22:21:33.674Z,100044.04
2018-12-09T22:24:01.159Z,100045.19
2018-12-09T22:26:28.665Z,100056.25
2018-12-09T22:28:56.153Z,100046.31
2018-12-09T22:31:23.673Z,100047.48
2018-12-09T22:33:51.152Z,100064.70
2018-12-09T22:36:18.640Z,100053.36
2018-12-09T22:38:46.150Z,100056.95
2018-12-09T22:41:13.631Z,100065.77
2018-12-09T22:43:41.139Z,100073.20
2018-12-09T22:46:08.623Z,100080.41
2018-12-09T22:48:36.135Z,100082.70
2018-12-09T22:51:03.673Z,100084.63
2018-12-09T22:53:31.175Z,100083.39
2018-12-09T22:55:58.652Z,100097.45
2018-12-09T22:58:26.152Z,100100.26
2018-12-09T23:00:59.319Z,100109.69
2018-12-09T23:03:26.842Z,100107.77
2018-12-09T23:05:54.319Z,100123.58
2018-12-09T23:08:21.829Z,100114.20
2018-12-09T23:10:49.312Z,100119.56
2018-12-09T23:13:16.822Z,100119.24
2018-12-09T23:15:44.322Z,100117.89
2018-12-09T23:18:11.833Z,100130.02
2018-12-09T23:20:39.317Z,100132.83
2018-12-09T23:23:06.825Z,100130.66
2018-12-09T23:25:34.315Z,100143.08
2018-12-09T23:28:01.819Z,100139.70
2018-12-09T23:30:29.295Z,100140.69
2018-12-09T23:32:56.806Z,100145.45
2018-12-09T23:35:24.285Z,100147.28
2018-12-09T23:37:51.788Z,100159.19
2018-12-09T23:40:19.270Z,100166.76
2018-12-09T23:42:46.781Z,100175.23
2018-12-09T23:45:14.269Z,100175.10
2018-12-09T23:47:41.755Z,100168.66
2018-12-09T23:50:09.252Z,100170.45
2018-12-09T23:55:10.547Z,100174.83
2018-12-09T23:57:38.029Z,100170.89
